Time;durP1;ratioP1;P1;durP2;ratioP2;P2;SDS_P1;SDS_P2;PMS_P1;PMS_P2;Temp;Humidity;BMP_temperature;BMP_pressure;BME280_temperature;BME280_humidity;BME280_pressure;Samples;Min_cycle;Max_cycle;Signal;HPM_P1;HPM_P2
2023/07/17 00:00:05;;;;;;;9.13;6.13;;;;;;;16.44;94.90;100595.19;4946008;28;20206;-69
2023/07/17 00:02:33;;;;;;;9.33;5.80;;;;;;;16.18;96.70;100596.22;4941240;28;20256;-70
2023/07/17 00:04:59;;;;;;;12.77;5.87;;;;;;;16.03;99.27;100595.44;4946053;28;20206;-71
2023/07/17 00:07:26;;;;;;;9.50;5.77;;;;;;;15.98;100.00;100598.09;4945474;28;20797;-69
2023/07/17 00:09:52;;;;;;;11.20;7.13;;;;;;;16.08;100.00;100594.53;4941649;28;20238;-69
2023/07/17 00:12:19;;;;;;;12.30;6.13;;;;;;;16.14;100.00;100596.25;4944337;28;20209;-69
2023/07/17 00:14:45;;;;;;;8.93;5.93;;;;;;;16.11;100.00;100601.63;4944295;28;20625;-69
2023/07/17 00:17:13;;;;;;;10.67;6.00;;;;;;;15.94;100.00;100594.56;4944670;28;20699;-69
2023/07/17 00:19:39;;;;;;;15.60;6.40;;;;;;;15.73;100.00;100593.81;4947008;28;20674;-69
2023/07/17 00:22:07;;;;;;;10.87;5.97;;;;;;;15.56;100.00;100594.69;4937779;28;20226;-69
2023/07/17 00:24:34;;;;;;;10.53;6.10;;;;;;;15.44;100.00;100599.22;4946126;28;20575;-70
2023/07/17 00:27:01;;;;;;;9.53;5.90;;;;;;;15.33;100.00;100597.47;4942819;28;20226;-69
2023/07/17 00:29:31;;;;;;;10.33;5.90;;;;;;;15.30;100.00;100593.91;4946682;28;20238;-69
2023/07/17 00:31:57;;;;;;;10.27;6.07;;;;;;;15.34;100.00;100596.56;4947941;28;20230;-71
2023/07/17 00:34:24;;;;;;;12.10;6.00;;;;;;;15.43;100.00;100597.44;4941463;28;20209;-70
2023/07/17 00:36:51;;;;;;;8.93;5.87;;;;;;;15.50;100.00;100599.19;4943083;28;20305;-70
2023/07/17 00:39:21;;;;;;;11.17;6.60;;;;;;;15.57;100.00;100593.81;4926934;28;20217;-70
2023/07/17 00:41:49;;;;;;;9.87;6.00;;;;;;;15.91;100.00;100599.94;4942002;29;20198;-71
2023/07/17 00:44:16;;;;;;;11.90;6.43;;;;;;;16.12;100.00;100601.63;4945862;28;20230;-69
2023/07/17 00:46:44;;;;;;;9.50;5.70;;;;;;;16.23;100.00;100599.75;4943622;28;20230;-69
2023/07/17 00:49:10;;;;;;;9.70;6.10;;;;;;;16.26;100.00;100597.06;4950584;28;20253;-70
2023/07/17 00:51:39;;;;;;;11.17;6.07;;;;;;;16.30;100.00;100608.63;4942408;28;20202;-71
2023/07/17 00:54:07;;;;;;;10.30;6.07;;;;;;;16.43;100.00;100609.44;4950046;28;20233;-70
2023/07/17 00:56:34;;;;;;;9.93;6.20;;;;;;;16.40;100.00;100604.09;4948009;28;20209;-71
2023/07/17 00:59:04;;;;;;;9.73;6.07;;;;;;;16.33;100.00;100616.63;4949629;28;20710;-70
2023/07/17 01:01:32;;;;;;;11.60;6.60;;;;;;;16.27;100.00;100606.84;4942742;28;20693;-69
2023/07/17 01:04:02;;;;;;;10.43;6.27;;;;;;;16.16;100.00;100597.13;4945258;28;20209;-69
2023/07/17 01:06:28;;;;;;;12.90;6.47;;;;;;;16.12;100.00;100601.63;4949612;28;20249;-70
2023/07/17 01:08:54;;;;;;;9.63;6.07;;;;;;;15.97;100.00;100602.56;4947559;28;20224;-69
2023/07/17 01:11:21;;;;;;;10.43;5.73;;;;;;;15.83;100.00;100603.53;4944883;28;20208;-70
2023/07/17 01:13:49;;;;;;;12.83;6.80;;;;;;;15.72;100.00;100592.03;4952015;28;20233;-69
2023/07/17 01:16:15;;;;;;;10.73;6.20;;;;;;;15.62;100.00;100600.09;4947773;28;20201;-69
2023/07/17 01:18:42;;;;;;;12.07;6.27;;;;;;;15.44;100.00;100604.53;4946185;28;20548;-69
2023/07/17 01:21:12;;;;;;;10.60;6.07;;;;;;;15.26;100.00;100602.81;4950259;28;20203;-70
2023/07/17 01:23:39;;;;;;;10.47;6.97;;;;;;;15.07;100.00;100599.28;4948513;28;20497;-70
2023/07/17 01:26:13;;;;;;;10.23;6.40;;;;;;;14.89;100.00;100608.22;4945735;28;20223;-70
2023/07/17 01:28:40;;;;;;;11.00;6.17;;;;;;;14.78;100.00;100603.75;4947402;28;21168;-70
2023/07/17 01:31:07;;;;;;;13.80;6.63;;;;;;;14.91;100.00;100610.88;4946629;28;20198;-69
2023/07/17 01:33:34;;;;;;;10.40;6.37;;;;;;;14.76;100.00;100610.88;4952392;28;20202;-71
2023/07/17 01:36:01;;;;;;;11.50;6.47;;;;;;;14.60;100.00;100625.97;4949599;28;20198;-70
2023/07/17 01:38:28;;;;;;;12.80;6.90;;;;;;;14.48;100.00;100621.53;4949639;28;20730;-69
2023/07/17 01:40:54;;;;;;;9.80;6.27;;;;;;;14.37;100.00;100623.22;4944743;28;20289;-70
2023/07/17 01:43:21;;;;;;;10.97;6.50;;;;;;;14.31;100.00;100615.22;4947828;28;20194;-70
2023/07/17 01:45:48;;;;;;;8.87;6.23;;;;;;;14.24;100.00;100614.34;4950317;28;20285;-71
2023/07/17 01:48:14;;;;;;;11.93;7.03;;;;;;;14.18;100.00;100617.00;4946920;28;20316;-70
2023/07/17 01:50:41;;;;;;;13.23;6.90;;;;;;;14.12;100.00;100619.66;4947239;28;20293;-70
2023/07/17 01:53:07;;;;;;;12.17;6.67;;;;;;;14.07;100.00;100616.97;4943905;28;20624;-72
2023/07/17 01:55:34;;;;;;;13.90;6.80;;;;;;;14.07;100.00;100616.97;4948559;28;20249;-71
2023/07/17 01:58:00;;;;;;;12.20;6.97;;;;;;;14.07;100.00;100619.63;4949774;28;20226;-70
2023/07/17 02:00:27;;;;;;;10.57;7.10;;;;;;;14.20;100.00;100614.34;4946343;28;20697;-69
2023/07/17 02:02:53;;;;;;;11.63;6.43;;;;;;;14.20;100.00;100612.56;4953620;28;20198;-72
2023/07/17 02:05:20;;;;;;;13.17;6.63;;;;;;;14.13;100.00;100613.44;4945459;28;20213;-69
2023/07/17 02:07:47;;;;;;;9.93;6.87;;;;;;;14.04;100.00;100614.31;4949574;28;20623;-70
2023/07/17 02:10:13;;;;;;;15.03;7.20;;;;;;;13.96;100.00;100621.34;4951060;28;20201;-69
2023/07/17 02:12:40;;;;;;;13.97;7.53;;;;;;;13.90;100.00;100617.78;4949517;28;20202;-70
2023/07/17 02:15:07;;;;;;;10.67;6.90;;;;;;;13.83;100.00;100616.00;4946955;28;20210;-72
2023/07/17 02:17:33;;;;;;;10.33;6.73;;;;;;;13.71;100.00;100606.19;4948108;28;20572;-71
2023/07/17 02:19:59;;;;;;;11.30;6.90;;;;;;;13.63;100.00;100616.81;4951248;28;20285;-71
2023/07/17 02:22:27;;;;;;;12.30;7.33;;;;;;;13.56;100.00;100614.09;4947995;28;20229;-72
2023/07/17 02:24:54;;;;;;;12.77;6.87;;;;;;;13.66;100.00;100621.25;4950694;28;20210;-71
2023/07/17 02:27:20;;;;;;;10.80;6.63;;;;;;;13.64;100.00;100618.59;4931828;28;20216;-71
2023/07/17 02:29:47;;;;;;;12.53;6.80;;;;;;;13.72;100.00;100615.97;4949293;28;20210;-71
2023/07/17 02:32:14;;;;;;;10.07;6.67;;;;;;;13.94;100.00;100622.22;4942272;28;20206;-71
2023/07/17 02:34:40;;;;;;;12.97;6.80;;;;;;;13.91;100.00;100623.13;4946043;28;20199;-71
2023/07/17 02:37:10;;;;;;;13.87;7.00;;;;;;;13.95;100.00;100632.88;4947424;28;20195;-70
2023/07/17 02:39:37;;;;;;;12.23;6.97;;;;;;;13.92;100.00;100630.22;4944128;28;20215;-72
2023/07/17 02:42:03;;;;;;;12.67;7.10;;;;;;;13.79;100.00;100631.97;4948407;28;20234;-70
2023/07/17 02:44:30;;;;;;;13.57;7.37;;;;;;;13.74;100.00;100632.81;4949579;28;20206;-69
2023/07/17 02:46:56;;;;;;;12.90;7.30;;;;;;;13.74;100.00;100636.38;4946470;28;20612;-70
2023/07/17 02:49:23;;;;;;;10.67;6.90;;;;;;;13.66;100.00;100637.22;4948452;28;20214;-72
2023/07/17 02:51:49;;;;;;;10.97;7.07;;;;;;;13.60;100.00;100637.16;4949280;28;20197;-70
2023/07/17 02:54:15;;;;;;;18.30;7.90;;;;;;;13.58;100.00;100636.28;4947086;28;20209;-71
2023/07/17 02:56:42;;;;;;;11.03;6.93;;;;;;;13.48;100.00;100635.34;4946892;28;20209;-71
2023/07/17 02:59:08;;;;;;;12.03;6.93;;;;;;;13.47;100.00;100641.53;4947792;28;20301;-73
2023/07/17 03:01:35;;;;;;;8.90;6.13;;;;;;;13.52;100.00;100645.13;4945257;28;20225;-70
2023/07/17 03:04:01;;;;;;;11.63;7.50;;;;;;;13.58;100.00;100647.81;4941760;28;20208;-73
2023/07/17 03:06:28;;;;;;;11.07;6.73;;;;;;;13.52;100.00;100646.88;4946605;28;20201;-71
2023/07/17 03:08:54;;;;;;;12.53;7.20;;;;;;;13.61;100.00;100641.59;4947932;28;20222;-74
2023/07/17 03:11:20;;;;;;;14.67;7.60;;;;;;;13.53;100.00;100646.00;4945098;28;20290;-71
2023/07/17 03:13:47;;;;;;;12.30;6.83;;;;;;;13.62;100.00;100654.06;4943982;28;20201;-71
2023/07/17 03:16:13;;;;;;;14.40;7.30;;;;;;;13.65;100.00;100651.41;4947140;28;20631;-71
2023/07/17 03:18:40;;;;;;;16.03;7.40;;;;;;;13.74;100.00;100659.44;4947898;28;20230;-72
2023/07/17 03:21:06;;;;;;;12.53;6.73;;;;;;;13.62;100.00;100662.94;4947799;28;20452;-70
2023/07/17 03:23:32;;;;;;;11.17;6.70;;;;;;;13.45;100.00;100659.28;4945410;28;20208;-72
2023/07/17 03:25:59;;;;;;;16.33;7.20;;;;;;;13.45;100.00;100660.16;4943927;28;20198;-71
2023/07/17 03:28:25;;;;;;;12.83;7.17;;;;;;;13.37;100.00;100668.97;4945448;28;20822;-71
2023/07/17 03:30:52;;;;;;;12.50;6.97;;;;;;;13.27;100.00;100660.06;4942630;28;20202;-71
2023/07/17 03:33:18;;;;;;;11.47;6.33;;;;;;;13.21;100.00;100668.00;4947141;28;20289;-71
2023/07/17 03:35:45;;;;;;;11.37;7.10;;;;;;;13.27;100.00;100672.47;4946099;28;20233;-72
2023/07/17 03:38:11;;;;;;;10.83;6.30;;;;;;;13.32;100.00;100660.97;4946513;28;20721;-72
2023/07/17 03:40:38;;;;;;;15.40;7.73;;;;;;;13.29;100.00;100668.06;4945652;28;20294;-71
2023/07/17 03:43:04;;;;;;;13.13;7.23;;;;;;;13.29;100.00;100676.03;4947364;28;20194;-71
2023/07/17 03:45:30;;;;;;;12.33;7.00;;;;;;;13.20;100.00;100666.19;4947206;28;20915;-69
2023/07/17 03:47:57;;;;;;;11.70;7.03;;;;;;;13.20;100.00;100670.63;4946524;28;20255;-72
2023/07/17 03:50:23;;;;;;;12.43;7.17;;;;;;;13.16;100.00;100667.91;4946260;28;20655;-71
2023/07/17 03:52:50;;;;;;;11.67;7.00;;;;;;;13.27;100.00;100676.03;4947188;28;20198;-70
2023/07/17 03:55:16;;;;;;;14.37;7.17;;;;;;;13.30;100.00;100684.03;4948236;28;20317;-69
2023/07/17 03:57:43;;;;;;;12.43;6.97;;;;;;;13.28;100.00;100680.47;4946219;28;20229;-69
2023/07/17 04:00:13;;;;;;;11.60;7.43;;;;;;;13.37;100.00;100684.94;4945890;28;20210;-72
2023/07/17 04:02:41;;;;;;;10.80;6.87;;;;;;;13.34;100.00;100680.50;4944992;28;20334;-71
2023/07/17 04:05:08;;;;;;;11.83;7.00;;;;;;;13.33;100.00;100689.34;4944115;28;20201;-72
2023/07/17 04:07:34;;;;;;;9.93;6.73;;;;;;;13.35;100.00;100684.03;4945081;28;20694;-71
2023/07/17 04:10:01;;;;;;;13.00;6.90;;;;;;;13.61;100.00;100693.09;4942385;28;20206;-71
2023/07/17 04:12:27;;;;;;;10.70;6.53;;;;;;;13.82;100.00;100692.31;4946535;28;20682;-71
2023/07/17 04:14:54;;;;;;;12.70;6.03;;;;;;;14.03;100.00;100707.50;4948220;28;20260;-71
2023/07/17 04:17:20;;;;;;;11.10;6.73;;;;;;;13.93;100.00;100693.25;4942796;28;20221;-72
2023/07/17 04:19:47;;;;;;;10.83;6.63;;;;;;;13.91;100.00;100700.34;4945522;28;20216;-71
2023/07/17 04:22:13;;;;;;;12.90;6.83;;;;;;;14.02;100.00;100703.06;4946923;28;20678;-70
2023/07/17 04:24:40;;;;;;;11.50;6.47;;;;;;;14.01;100.00;100695.97;4949979;28;20198;-70
2023/07/17 04:27:06;;;;;;;11.17;6.90;;;;;;;14.03;100.00;100703.06;4947949;28;20411;-70
2023/07/17 04:29:32;;;;;;;11.50;6.47;;;;;;;14.05;100.00;100705.75;4951793;23;20238;-70
2023/07/17 04:31:59;;;;;;;11.53;6.83;;;;;;;14.09;100.00;100718.19;4932795;29;20217;-72
2023/07/17 04:34:25;;;;;;;9.90;6.60;;;;;;;14.29;100.00;100711.16;4930573;29;20211;-69
2023/07/17 04:36:52;;;;;;;12.23;6.83;;;;;;;14.52;100.00;100713.03;4924776;29;20202;-68
2023/07/17 04:39:18;;;;;;;10.47;6.70;;;;;;;14.47;100.00;100713.03;4928167;29;20234;-69
2023/07/17 04:41:44;;;;;;;10.97;6.57;;;;;;;14.43;100.00;100699.69;4932520;29;20203;-69
2023/07/17 04:44:11;;;;;;;13.57;6.87;;;;;;;14.72;100.00;100717.50;4928998;29;20209;-70
2023/07/17 04:46:37;;;;;;;12.40;6.97;;;;;;;14.76;100.00;100701.50;4929683;29;20195;-69
2023/07/17 04:49:04;;;;;;;10.30;6.30;;;;;;;14.87;100.00;100723.78;4931201;29;20668;-69
2023/07/17 04:51:30;;;;;;;11.10;6.67;;;;;;;14.99;100.00;100718.44;4930483;29;20397;-67
2023/07/17 04:53:57;;;;;;;12.33;6.83;;;;;;;15.05;100.00;100721.09;4925854;29;20219;-69
2023/07/17 04:56:23;;;;;;;9.53;6.33;;;;;;;15.10;100.00;100719.31;4930380;29;20912;-69
2023/07/17 04:58:50;;;;;;;11.17;6.77;;;;;;;15.15;100.00;100722.88;4932974;29;20568;-69
2023/07/17 05:01:16;;;;;;;13.07;7.17;;;;;;;15.24;100.00;100719.34;4925734;29;20282;-69
2023/07/17 05:03:43;;;;;;;11.37;6.80;;;;;;;15.33;100.00;100720.22;4926572;29;20218;-68
2023/07/17 05:06:09;;;;;;;13.07;6.50;;;;;;;15.49;100.00;100726.41;4930112;29;20526;-68
2023/07/17 05:08:36;;;;;;;12.53;6.57;;;;;;;15.56;100.00;100721.97;4929715;29;20250;-69
2023/07/17 05:11:04;;;;;;;10.07;6.53;;;;;;;15.72;100.00;100729.09;4929377;29;20211;-69
2023/07/17 05:13:30;;;;;;;12.17;7.17;;;;;;;15.84;100.00;100723.72;4927759;29;20214;-69
2023/07/17 05:15:57;;;;;;;12.87;7.40;;;;;;;16.02;100.00;100737.94;4928478;29;20202;-69
2023/07/17 05:18:23;;;;;;;13.27;7.83;;;;;;;16.21;100.00;100740.53;4930278;29;20214;-70
2023/07/17 05:20:51;;;;;;;13.17;7.40;;;;;;;16.36;100.00;100739.56;4929102;29;20590;-69
2023/07/17 05:23:18;;;;;;;11.93;6.87;;;;;;;16.57;100.00;100736.78;4928995;29;20219;-67
2023/07/17 05:25:56;;;;;;;13.53;7.43;;;;;;;16.83;100.00;100749.16;4919143;29;20218;-69
2023/07/17 05:28:23;;;;;;;12.27;7.03;;;;;;;16.96;100.00;100733.91;4922290;29;20697;-68
2023/07/17 05:30:53;;;;;;;14.97;7.30;;;;;;;17.05;100.00;100747.22;4906881;29;20246;-67
2023/07/17 05:33:20;;;;;;;12.63;7.10;;;;;;;17.06;100.00;100749.88;4908964;29;20705;-67
2023/07/17 05:35:47;;;;;;;14.83;7.10;;;;;;;17.08;100.00;100747.19;4910909;29;20208;-67
2023/07/17 05:38:14;;;;;;;15.67;6.83;;;;;;;17.13;100.00;100748.03;4910150;29;20323;-64
2023/07/17 05:40:40;;;;;;;13.17;7.03;;;;;;;17.19;100.00;100751.56;4886708;29;20307;-66
2023/07/17 05:43:08;;;;;;;8.50;6.47;;;;;;;17.21;100.00;100741.75;4909704;29;20210;-70
2023/07/17 05:45:35;;;;;;;11.93;6.50;;;;;;;17.32;100.00;100749.69;4909973;29;20208;-67
2023/07/17 05:48:02;;;;;;;10.53;6.47;;;;;;;17.42;100.00;100753.16;4908479;29;20235;-68
2023/07/17 05:50:29;;;;;;;14.17;6.43;;;;;;;17.51;100.00;100758.44;4911885;29;20246;-67
2023/07/17 05:52:55;;;;;;;10.53;6.17;;;;;;;17.74;100.00;100760.94;4907757;29;20210;-69
2023/07/17 05:55:22;;;;;;;14.50;6.97;;;;;;;17.87;97.86;100749.19;4908417;29;20264;-68
2023/07/17 05:57:48;;;;;;;12.17;6.10;;;;;;;17.97;97.07;100745.50;4911938;29;20216;-67
2023/07/17 06:00:15;;;;;;;10.67;6.43;;;;;;;18.10;94.94;100739.09;4908890;29;20682;-66
2023/07/17 06:02:42;;;;;;;10.90;6.50;;;;;;;18.22;95.07;100742.53;4898528;29;20207;-67
2023/07/17 06:05:10;;;;;;;11.30;6.27;;;;;;;18.46;93.66;100747.59;4905481;29;20259;-67
2023/07/17 06:07:37;;;;;;;10.17;6.63;;;;;;;18.47;94.15;100752.94;4910415;29;20247;-67
2023/07/17 06:10:05;;;;;;;9.93;6.00;;;;;;;18.34;92.87;100754.00;4900840;29;20279;-68
2023/07/17 06:12:32;;;;;;;12.33;6.67;;;;;;;18.35;95.08;100766.50;4893858;29;20215;-70
2023/07/17 06:14:58;;;;;;;14.10;6.90;;;;;;;18.39;96.09;100768.22;4911300;29;20706;-69
2023/07/17 06:17:24;;;;;;;12.03;6.63;;;;;;;18.45;94.54;100764.59;4912734;29;20680;-69
2023/07/17 06:19:51;;;;;;;10.20;6.27;;;;;;;18.51;93.19;100764.53;4910790;29;20234;-66
2023/07/17 06:22:17;;;;;;;10.73;6.03;;;;;;;18.70;90.34;100752.66;4914024;29;20648;-67
2023/07/17 06:24:44;;;;;;;14.03;6.60;;;;;;;18.91;87.07;100758.63;4912876;29;20226;-70
2023/07/17 06:27:11;;;;;;;10.03;6.10;;;;;;;19.47;81.85;100763.09;4906477;29;20208;-70
2023/07/17 06:29:37;;;;;;;12.80;6.20;;;;;;;19.84;78.51;100763.38;4913365;29;20238;-68
2023/07/17 06:32:04;;;;;;;7.47;5.60;;;;;;;20.12;76.11;100763.72;4921744;29;20196;-68
2023/07/17 06:34:31;;;;;;;10.23;5.93;;;;;;;20.14;75.62;100769.09;4912017;29;20303;-68
2023/07/17 06:36:57;;;;;;;9.40;5.50;;;;;;;20.57;73.61;100771.81;4918991;29;20526;-69
2023/07/17 06:39:23;;;;;;;9.90;6.43;;;;;;;20.48;72.98;100762.13;4917330;29;20254;-68
2023/07/17 06:41:50;;;;;;;9.93;5.57;;;;;;;20.02;74.01;100778.28;4918992;29;21356;-67
2023/07/17 06:44:16;;;;;;;9.60;5.93;;;;;;;19.65;76.40;100775.38;4905711;29;20717;-67
2023/07/17 06:46:43;;;;;;;8.47;5.80;;;;;;;19.61;78.32;100784.38;4924300;29;20206;-68
2023/07/17 06:49:09;;;;;;;11.00;5.97;;;;;;;19.49;78.01;100779.19;4924542;29;20231;-68
2023/07/17 06:51:36;;;;;;;10.63;6.80;;;;;;;19.50;78.06;100780.97;4915495;29;20431;-67
2023/07/17 06:54:02;;;;;;;8.77;5.77;;;;;;;19.51;78.68;100778.25;4915628;29;20238;-69
2023/07/17 06:56:28;;;;;;;10.27;5.80;;;;;;;19.60;78.71;100777.22;4915123;29;20218;-68
2023/07/17 06:58:57;;;;;;;10.60;6.00;;;;;;;19.72;78.50;100779.72;4918185;29;20220;-69
2023/07/17 07:01:24;;;;;;;7.93;5.10;;;;;;;19.92;78.28;100780.22;4916232;29;20266;-68
2023/07/17 07:03:50;;;;;;;8.87;5.33;;;;;;;20.19;76.63;100783.31;4909495;29;20703;-67
2023/07/17 07:06:17;;;;;;;12.57;5.97;;;;;;;20.43;75.61;100777.50;4921875;29;20207;-69
2023/07/17 07:08:44;;;;;;;10.70;5.87;;;;;;;21.05;73.00;100777.88;4923296;29;20695;-67
2023/07/17 07:11:10;;;;;;;11.48;5.97;;;;;;;22.71;67.01;100769.88;4902503;29;20218;-67
2023/07/17 07:13:37;;;;;;;12.15;6.22;;;;;;;23.83;59.47;100767.19;4913416;29;20625;-67
2023/07/17 07:16:04;;;;;;;11.20;5.57;;;;;;;25.45;53.70;100779.03;4922752;29;20257;-68
2023/07/17 07:18:30;;;;;;;10.45;5.50;;;;;;;27.70;47.56;100780.44;4916796;29;20222;-70
2023/07/17 07:20:56;;;;;;;8.57;4.93;;;;;;;29.13;43.60;100783.56;4908854;29;20298;-67
2023/07/17 07:23:23;;;;;;;8.80;5.15;;;;;;;29.17;41.75;100792.47;4911260;29;20204;-68
2023/07/17 07:25:49;;;;;;;8.50;5.03;;;;;;;28.65;42.30;100784.47;4918219;29;20203;-68
2023/07/17 07:28:16;;;;;;;7.25;5.00;;;;;;;29.06;41.30;100787.63;4914479;29;20735;-71
2023/07/17 07:30:42;;;;;;;8.50;5.63;;;;;;;29.64;40.31;100787.00;4929304;29;20202;-66
2023/07/17 07:33:09;;;;;;;8.80;5.28;;;;;;;30.34;39.14;100779.13;4927928;29;20222;-67
2023/07/17 07:35:35;;;;;;;7.50;4.72;;;;;;;30.54;38.59;100781.50;4929074;29;20213;-67
2023/07/17 07:38:02;;;;;;;10.90;5.57;;;;;;;29.95;39.29;100789.63;4929727;29;20214;-67
2023/07/17 07:40:28;;;;;;;14.40;5.28;;;;;;;30.57;37.89;100778.56;4929832;29;20211;-66
2023/07/17 07:42:55;;;;;;;12.73;4.93;;;;;;;31.04;37.42;100782.84;4929434;29;20199;-71
2023/07/17 07:45:21;;;;;;;11.05;5.13;;;;;;;31.00;36.17;100787.66;4927974;29;20209;-69
2023/07/17 07:47:47;;;;;;;8.60;4.55;;;;;;;31.00;35.31;100775.81;4917171;29;20567;-68
2023/07/17 07:50:14;;;;;;;9.75;4.10;;;;;;;31.04;35.46;100782.84;4930141;29;20209;-69
2023/07/17 07:52:40;;;;;;;10.57;4.13;;;;;;;30.62;33.90;100789.22;4929645;29;20217;-65
2023/07/17 07:55:07;;;;;;;7.20;4.00;;;;;;;30.08;34.50;100784.38;4924528;29;20701;-68
2023/07/17 07:57:36;;;;;;;6.63;3.90;;;;;;;30.51;33.92;100795.34;4928283;29;20239;-67
2023/07/17 08:00:03;;;;;;;7.78;4.03;;;;;;;30.89;34.32;100797.53;4930836;29;20306;-67
2023/07/17 08:02:30;;;;;;;8.40;4.00;;;;;;;30.80;33.78;100796.25;4925873;29;20212;-69
2023/07/17 08:04:56;;;;;;;9.18;4.10;;;;;;;30.33;33.87;100788.28;4921345;29;20203;-71
2023/07/17 08:07:23;;;;;;;7.03;3.67;;;;;;;30.23;34.50;100788.00;4930005;29;20348;-67
2023/07/17 08:09:49;;;;;;;9.27;4.00;;;;;;;29.88;35.05;100796.44;4930834;29;20793;-68
2023/07/17 08:12:16;;;;;;;9.80;4.40;;;;;;;29.92;36.14;100802.59;4930059;29;20215;-70
2023/07/17 08:14:42;;;;;;;6.57;4.13;;;;;;;30.20;34.40;100796.38;4921053;29;20698;-71
2023/07/17 08:17:08;;;;;;;10.55;4.05;;;;;;;29.34;35.66;100797.84;4917486;29;20286;-68
2023/07/17 08:19:35;;;;;;;7.30;3.75;;;;;;;29.07;36.87;100794.84;4928294;29;20270;-69
2023/07/17 08:22:02;;;;;;;9.85;4.20;;;;;;;29.24;36.48;100789.31;4924243;29;20738;-66
2023/07/17 08:24:28;;;;;;;8.30;3.83;;;;;;;28.12;37.88;100788.22;4919984;29;20213;-69
2023/07/17 08:26:55;;;;;;;9.15;4.35;;;;;;;28.05;38.55;100789.50;4937303;29;20201;-69
2023/07/17 08:29:22;;;;;;;8.88;4.25;;;;;;;27.25;40.31;100789.03;4942520;29;20313;-68
2023/07/17 08:31:48;;;;;;;9.85;4.28;;;;;;;26.68;41.55;100794.44;4945656;29;20199;-72
2023/07/17 08:34:17;;;;;;;6.63;3.97;;;;;;;26.58;42.59;100792.22;4932848;29;20209;-68
2023/07/17 08:36:43;;;;;;;7.78;3.80;;;;;;;26.48;42.03;100799.91;4935816;29;20217;-71
2023/07/17 08:39:09;;;;;;;7.57;3.78;;;;;;;26.24;42.94;100799.16;4948405;29;20313;-68
2023/07/17 08:41:36;;;;;;;6.65;3.60;;;;;;;26.24;43.18;100789.16;4942276;29;20198;-71
2023/07/17 08:44:03;;;;;;;7.28;3.72;;;;;;;26.36;43.38;100797.75;4923023;29;20237;-69
2023/07/17 08:46:30;;;;;;;8.35;3.58;;;;;;;25.70;43.46;100799.75;4927682;29;20582;-69
2023/07/17 08:48:56;;;;;;;6.93;3.72;;;;;;;25.30;45.04;100796.81;4937420;29;20226;-68
2023/07/17 08:51:26;;;;;;;7.75;3.83;;;;;;;25.59;45.09;100795.59;4926879;29;20209;-67
2023/07/17 08:53:56;;;;;;;6.47;4.70;;;;;;;25.92;44.82;100803.28;4926470;29;20199;-68
2023/07/17 08:56:44;;;;;;;7.22;3.47;;;;;;;25.96;42.65;100796.75;4922154;29;20282;-68
2023/07/17 08:59:11;;;;;;;8.40;3.83;;;;;;;25.92;42.74;100792.41;4927730;29;20294;-69
2023/07/17 09:01:38;;;;;;;7.88;3.95;;;;;;;25.79;43.84;100794.78;4931611;29;20295;-67
2023/07/17 09:04:06;;;;;;;8.27;3.60;;;;;;;25.94;43.21;100793.25;4926039;29;20811;-72
2023/07/17 09:06:32;;;;;;;9.90;3.10;;;;;;;26.29;41.65;100783.53;4928086;29;20207;-67
2023/07/17 09:09:00;;;;;;;8.48;3.60;;;;;;;26.07;42.63;100783.63;4927662;29;20237;-68
2023/07/17 09:11:26;;;;;;;7.43;3.35;;;;;;;26.05;41.73;100792.78;4931006;29;20497;-65
2023/07/17 09:13:52;;;;;;;5.95;3.40;;;;;;;26.05;40.96;100784.66;4933308;29;20203;-69
2023/07/17 09:16:21;;;;;;;8.73;3.42;;;;;;;26.39;40.65;100782.19;4929760;29;20301;-71
2023/07/17 09:18:49;;;;;;;6.68;3.53;;;;;;;26.66;41.80;100774.59;4928930;29;20227;-67
2023/07/17 09:21:17;;;;;;;5.63;3.20;;;;;;;26.68;41.04;100775.41;4932665;29;20206;-69
2023/07/17 09:23:46;;;;;;;7.90;3.30;;;;;;;26.46;40.65;100774.66;4930412;29;20206;-67
2023/07/17 09:26:17;;;;;;;6.60;3.30;;;;;;;26.20;40.66;100783.94;4928090;29;20206;-69
2023/07/17 09:28:50;;;;;;;4.65;3.00;;;;;;;25.77;40.74;100782.25;4932521;29;20806;-70
2023/07/17 09:31:28;;;;;;;6.38;3.00;;;;;;;25.18;41.82;100781.03;4931262;29;20282;-65
2023/07/17 09:34:12;;;;;;;7.47;3.45;;;;;;;25.26;42.19;100784.34;4926544;29;20609;-66
2023/07/17 09:36:38;;;;;;;5.70;2.90;;;;;;;25.11;41.19;100771.38;4929494;29;20580;-67
2023/07/17 09:39:05;;;;;;;5.22;2.83;;;;;;;25.11;42.04;100771.38;4932224;29;20218;-70
2023/07/17 09:41:32;;;;;;;6.90;3.35;;;;;;;25.35;42.24;100771.34;4933795;29;20206;-67
2023/07/17 09:44:00;;;;;;;6.88;3.17;;;;;;;25.60;41.24;100769.34;4928966;29;20209;-71
2023/07/17 09:46:28;;;;;;;6.55;3.45;;;;;;;25.97;41.71;100763.25;4931361;29;20246;-67
2023/07/17 09:48:55;;;;;;;6.72;3.40;;;;;;;26.01;40.91;100775.72;4930569;29;20686;-66
2023/07/17 09:51:23;;;;;;;5.57;2.90;;;;;;;26.01;39.11;100777.56;4931500;29;20656;-73
2023/07/17 09:53:49;;;;;;;5.97;3.35;;;;;;;26.11;39.54;100765.38;4926668;29;20704;-67
2023/07/17 09:56:18;;;;;;;6.18;3.20;;;;;;;26.40;39.73;100766.78;4930431;29;20233;-69
2023/07/17 09:58:51;;;;;;;5.70;3.10;;;;;;;26.59;39.66;100778.56;4931662;29;20366;-67
2023/07/17 10:01:19;;;;;;;4.70;2.53;;;;;;;26.62;39.04;100770.28;4929893;29;20199;-68
2023/07/17 10:03:48;;;;;;;5.47;2.67;;;;;;;26.84;38.86;100779.19;4929571;29;20199;-68
2023/07/17 10:06:17;;;;;;;5.15;2.60;;;;;;;26.76;39.23;100784.06;4928318;29;20203;-64
2023/07/17 10:08:50;;;;;;;7.18;2.70;;;;;;;26.73;38.35;100781.50;4931265;29;20218;-69
2023/07/17 10:11:17;;;;;;;7.60;2.63;;;;;;;27.29;38.56;100782.50;4929090;29;20195;-69
2023/07/17 10:13:47;;;;;;;4.63;2.38;;;;;;;27.69;38.28;100774.13;4928441;29;20210;-69
2023/07/17 10:16:17;;;;;;;4.15;2.53;;;;;;;28.04;37.13;100772.28;4928237;29;20203;-71
2023/07/17 10:18:55;;;;;;;12.00;2.55;;;;;;;28.33;36.35;100772.59;4930434;29;20215;-68
2023/07/17 10:21:22;;;;;;;4.35;2.83;;;;;;;28.38;35.61;100762.31;4927474;29;20272;-67
2023/07/17 10:23:50;;;;;;;4.15;2.40;;;;;;;28.73;34.80;100768.56;4929569;29;20314;-73
2023/07/17 10:26:20;;;;;;;7.30;2.42;;;;;;;28.61;34.61;100772.84;4929667;29;20285;-72
2023/07/17 10:28:52;;;;;;;4.32;2.20;;;;;;;28.10;33.33;100760.19;4940485;23;20273;-69
2023/07/17 10:31:21;;;;;;;5.65;2.60;;;;;;;27.87;33.76;100758.66;4908288;29;20263;-70
2023/07/17 10:34:01;;;;;;;4.95;2.70;;;;;;;27.95;32.63;100750.09;4935131;29;20209;-71
2023/07/17 10:36:42;;;;;;;6.50;2.40;;;;;;;27.98;33.81;100758.97;4930193;29;20199;-71
2023/07/17 10:39:15;;;;;;;6.00;2.70;;;;;;;27.89;34.12;100762.19;4930619;28;20273;-67
2023/07/17 10:41:42;;;;;;;5.63;2.83;;;;;;;27.78;34.25;100764.59;4950019;28;20667;-71
2023/07/17 10:44:15;;;;;;;5.35;2.20;;;;;;;27.47;34.40;100781.56;4951062;28;20210;-68
2023/07/17 10:46:45;;;;;;;3.03;1.92;;;;;;;27.22;34.63;100762.88;4950416;28;20221;-71
2023/07/17 10:49:15;;;;;;;5.50;2.00;;;;;;;27.32;34.81;100782.34;4945348;28;20685;-70
2023/07/17 10:51:47;;;;;;;4.78;2.42;;;;;;;27.34;34.75;100774.97;4934057;28;20209;-71
2023/07/17 10:54:15;;;;;;;4.70;2.63;;;;;;;27.19;34.79;100778.44;4953406;28;20243;-70
2023/07/17 10:56:45;;;;;;;5.18;2.53;;;;;;;27.29;34.51;100771.63;4946943;28;20206;-69
2023/07/17 10:59:13;;;;;;;5.75;2.08;;;;;;;27.25;34.06;100768.16;4944902;28;20213;-71
2023/07/17 11:01:40;;;;;;;3.00;2.05;;;;;;;27.02;33.67;100765.69;4947709;28;20659;-70
2023/07/17 11:04:09;;;;;;;4.88;2.00;;;;;;;27.52;34.07;100757.72;4943762;28;20273;-71
2023/07/17 11:06:36;;;;;;;7.32;2.20;;;;;;;28.08;33.57;100765.72;4950740;28;20198;-71
2023/07/17 11:09:03;;;;;;;4.28;2.00;;;;;;;28.55;33.53;100764.13;4937605;29;20689;-71
2023/07/17 11:11:31;;;;;;;7.07;2.33;;;;;;;28.89;32.00;100769.50;4950867;28;20297;-71
2023/07/17 11:13:59;;;;;;;3.88;2.17;;;;;;;28.89;31.67;100765.91;4952231;29;20649;-71
2023/07/17 11:16:25;;;;;;;6.72;2.38;;;;;;;29.12;31.47;100760.00;4944662;28;20638;-71